Time;durP1;ratioP1;P1;durP2;ratioP2;P2;SDS_P1;SDS_P2;PMS_P1;PMS_P2;Temp;Humidity;BMP_temperature;BMP_pressure;BME280_temperature;BME280_humidity;BME280_pressure;Samples;Min_cycle;Max_cycle;Signal;HPM_P1;HPM_P2
2022/09/05 00:00:08;;;;;;;3.40;2.00;;;;;;;14.57;49.42;101372.80;117188;1188;23579;-58
2022/09/05 00:03:01;;;;;;;4.00;1.70;;;;;;;14.62;49.37;101369.73;117283;1186;22998;-58
2022/09/05 00:05:59;;;;;;;7.00;1.80;;;;;;;14.67;49.54;101371.44;117264;1185;21859;-66
2022/09/05 00:08:49;;;;;;;3.40;1.50;;;;;;;14.73;49.53;101369.10;117197;1186;22157;-66
2022/09/05 00:11:38;;;;;;;3.30;1.60;;;;;;;14.79;49.58;101372.89;117258;1186;23570;-58
2022/09/05 00:14:37;;;;;;;4.90;2.50;;;;;;;14.85;49.58;101375.98;116955;1188;22971;-58
2022/09/05 00:17:43;;;;;;;2.50;1.40;;;;;;;14.91;49.56;101376.80;117289;1186;21854;-58
2022/09/05 00:20:58;;;;;;;3.10;1.40;;;;;;;14.96;49.44;101378.33;117137;1189;23631;-66
2022/09/05 00:24:05;;;;;;;3.00;1.30;;;;;;;15.03;49.64;101368.48;117060;1186;22928;-66
2022/09/05 00:27:18;;;;;;;3.60;1.40;;;;;;;15.10;49.66;101372.08;117016;1188;22739;-58
2022/09/05 00:30:03;;;;;;;4.80;1.80;;;;;;;15.15;49.72;101372.02;117197;1182;21917;-58
2022/09/05 00:33:08;;;;;;;3.80;1.90;;;;;;;15.22;49.84;101372.63;117017;1186;21862;-65
2022/09/05 00:36:11;;;;;;;4.30;1.60;;;;;;;15.27;49.73;101367.58;116969;1189;21857;-66
2022/09/05 00:38:40;;;;;;;5.50;1.50;;;;;;;15.35;49.79;101367.81;117124;1186;22969;-57
2022/09/05 00:41:08;;;;;;;3.50;1.30;;;;;;;15.40;49.85;101366.67;117238;1186;21885;-57
2022/09/05 00:43:42;;;;;;;3.30;1.70;;;;;;;15.46;49.79;101364.08;117328;1183;22922;-65
2022/09/05 00:46:27;;;;;;;3.20;1.40;;;;;;;15.50;49.77;101366.15;117335;1186;21894;-57
2022/09/05 00:49:20;;;;;;;3.50;1.40;;;;;;;15.54;49.68;101369.96;117264;1186;22915;-58
2022/09/05 00:51:54;;;;;;;3.30;1.30;;;;;;;15.58;49.75;101365.83;117027;1188;22931;-58
2022/09/05 00:54:58;;;;;;;2.30;1.50;;;;;;;15.60;49.62;101364.02;116999;1186;22933;-66
2022/09/05 00:58:04;;;;;;;5.10;1.60;;;;;;;15.64;49.51;101359.36;117075;1188;21857;-67
2022/09/05 01:00:34;;;;;;;3.20;1.40;;;;;;;15.71;49.53;101359.05;117260;1183;23761;-65
2022/09/05 01:03:10;;;;;;;3.70;1.30;;;;;;;15.74;49.54;101353.87;117016;1188;21855;-66
2022/09/05 01:06:14;;;;;;;3.30;1.60;;;;;;;15.77;49.51;101346.58;117169;1186;23474;-58
2022/09/05 01:08:50;;;;;;;3.40;1.30;;;;;;;15.81;49.37;101341.00;117222;1185;21854;-66
2022/09/05 01:11:34;;;;;;;2.70;1.60;;;;;;;15.86;49.41;101343.58;117009;1188;23520;-65
2022/09/05 01:14:09;;;;;;;3.00;1.40;;;;;;;15.91;49.47;101338.73;117086;1186;22917;-65
2022/09/05 01:16:44;;;;;;;2.80;1.40;;;;;;;15.95;49.40;101338.30;117053;1183;21972;-57
2022/09/05 01:19:11;;;;;;;5.20;1.70;;;;;;;15.97;49.39;101341.61;117188;1182;23698;-65
2022/09/05 01:22:22;;;;;;;3.40;1.50;;;;;;;16.00;49.39;101343.34;117071;1189;21874;-58
2022/09/05 01:25:24;;;;;;;4.00;1.70;;;;;;;16.03;49.35;101343.63;116758;1189;24168;-60
2022/09/05 01:27:59;;;;;;;3.20;1.80;;;;;;;16.06;49.32;101346.94;116810;1189;21868;-58
2022/09/05 01:31:15;;;;;;;4.90;1.60;;;;;;;16.10;49.21;101341.04;117149;1189;23589;-65
2022/09/05 01:33:49;;;;;;;3.30;1.60;;;;;;;16.13;49.36;101342.36;117061;1188;23554;-58
2022/09/05 01:36:48;;;;;;;2.10;1.40;;;;;;;16.15;49.42;101338.07;117352;1183;22967;-66
2022/09/05 01:39:38;;;;;;;2.30;1.40;;;;;;;16.17;49.42;101332.00;117005;1188;23846;-58
2022/09/05 01:42:44;;;;;;;6.60;1.50;;;;;;;16.17;49.32;101334.50;117100;1183;23665;-59
2022/09/05 01:45:39;;;;;;;4.00;1.30;;;;;;;16.17;49.27;101335.71;117056;1186;23417;-58
2022/09/05 01:48:15;;;;;;;2.90;1.40;;;;;;;16.19;49.31;101331.98;117104;1186;22927;-65
2022/09/05 01:50:56;;;;;;;4.40;1.90;;;;;;;16.20;49.36;101332.31;117232;1182;21863;-58
2022/09/05 01:53:39;;;;;;;2.40;1.50;;;;;;;16.21;49.36;101329.11;117287;1186;22911;-66
2022/09/05 01:56:21;;;;;;;3.50;1.30;;;;;;;16.21;49.33;101328.05;117047;1183;21845;-66
2022/09/05 01:59:33;;;;;;;5.60;1.50;;;;;;;16.20;49.30;101332.30;117001;1189;21881;-66
2022/09/05 02:02:12;;;;;;;3.30;1.80;;;;;;;16.19;49.36;101330.55;116873;1187;22971;-58
2022/09/05 02:05:05;;;;;;;3.00;1.40;;;;;;;16.20;49.40;101335.49;117045;1187;22917;-58
2022/09/05 02:07:51;;;;;;;2.80;1.30;;;;;;;16.19;49.44;101339.23;117155;1186;24249;-65
2022/09/05 02:10:30;;;;;;;6.20;1.40;;;;;;;16.16;49.43;101338.41;117065;1186;24269;-65
2022/09/05 02:13:14;;;;;;;5.20;1.40;;;;;;;16.14;49.45;101335.08;117112;1187;22920;-57
2022/09/05 02:16:06;;;;;;;4.80;1.60;;;;;;;16.12;49.43;101335.13;117273;1186;23477;-65
2022/09/05 02:18:53;;;;;;;4.20;1.70;;;;;;;16.14;49.56;101335.62;117023;1187;21864;-57
2022/09/05 02:21:32;;;;;;;2.80;1.50;;;;;;;16.16;49.51;101336.10;116980;1188;22930;-64
2022/09/05 02:24:23;;;;;;;3.50;1.80;;;;;;;16.20;49.60;101328.95;116860;1186;23294;-57
2022/09/05 02:26:57;;;;;;;3.20;1.70;;;;;;;16.23;49.61;101325.35;117303;1185;24188;-65
2022/09/05 02:29:50;;;;;;;3.30;1.30;;;;;;;16.26;49.60;101323.87;117265;1183;22924;-57
2022/09/05 02:32:22;;;;;;;5.10;1.50;;;;;;;16.31;49.41;101323.23;117215;1186;23614;-57
2022/09/05 02:34:52;;;;;;;3.20;1.70;;;;;;;16.34;49.43;101322.82;117069;1186;23405;-58
2022/09/05 02:37:38;;;;;;;2.30;1.30;;;;;;;16.36;49.50;101326.49;117147;1186;24252;-65
2022/09/05 02:40:44;;;;;;;4.50;1.40;;;;;;;16.35;49.52;101323.66;117115;1186;22945;-66
2022/09/05 02:43:41;;;;;;;4.10;1.50;;;;;;;16.36;49.48;101326.84;116777;1186;21910;-67
2022/09/05 02:46:51;;;;;;;3.60;1.50;;;;;;;16.34;49.59;101320.16;117300;1186;21859;-59
2022/09/05 02:49:30;;;;;;;3.30;1.40;;;;;;;16.27;49.77;101322.45;117140;1186;22457;-67
2022/09/05 02:52:18;;;;;;;4.90;1.50;;;;;;;16.27;49.78;101327.92;116968;1189;21861;-58
2022/09/05 02:55:21;;;;;;;4.20;1.40;;;;;;;16.27;49.87;101328.27;117018;1188;21866;-59
2022/09/05 02:58:17;;;;;;;2.30;1.40;;;;;;;16.31;49.84;101325.71;116995;1188;23643;-58
2022/09/05 03:00:51;;;;;;;6.20;1.70;;;;;;;16.30;49.93;101323.61;117160;1186;23562;-67
2022/09/05 03:03:25;;;;;;;6.50;1.70;;;;;;;16.30;49.91;101323.63;117086;1182;22923;-67
2022/09/05 03:05:59;;;;;;;5.30;1.70;;;;;;;16.31;49.82;101326.26;117140;1188;21855;-58
2022/09/05 03:08:51;;;;;;;9.70;2.10;;;;;;;16.33;49.96;101328.67;117078;1186;23519;-65
2022/09/05 03:11:27;;;;;;;10.20;2.80;;;;;;;16.38;49.78;101332.81;117074;1186;23579;-63
2022/09/05 03:14:34;;;;;;;13.40;3.00;;;;;;;16.42;49.86;101333.45;116917;1186;22301;-57
2022/09/05 03:17:35;;;;;;;5.00;2.00;;;;;;;16.57;49.62;101333.82;117253;1187;22921;-59
2022/09/05 03:20:21;;;;;;;5.90;2.50;;;;;;;16.67;49.51;101332.20;118229;1187;21857;-60
2022/09/05 03:23:10;;;;;;;11.80;2.60;;;;;;;16.70;49.46;101336.20;117065;1186;23477;-59
2022/09/05 03:25:55;;;;;;;6.30;2.70;;;;;;;16.74;49.20;101335.23;117092;1186;23503;-67
2022/09/05 03:28:38;;;;;;;7.80;4.30;;;;;;;16.79;49.28;101337.77;117026;1186;22628;-60
2022/09/05 03:31:05;;;;;;;11.80;3.30;;;;;;;16.87;49.03;101338.65;116882;1186;23557;-59
2022/09/05 03:33:49;;;;;;;;;;;;;;;16.93;49.07;101341.89;118818;1185;21863;-61
2022/09/05 03:36:38;;;;;;;6.50;2.50;;;;;;;16.98;49.04;101344.30;117235;1183;24165;-68
2022/09/05 03:39:20;;;;;;;5.00;2.40;;;;;;;17.02;48.99;101347.03;117221;1186;24307;-68
2022/09/05 03:42:27;;;;;;;5.90;2.20;;;;;;;17.06;48.97;101348.35;117077;1187;23015;-59
2022/09/05 03:45:06;;;;;;;4.60;2.30;;;;;;;17.11;48.90;101348.40;117029;1189;21967;-60
2022/09/05 03:47:48;;;;;;;5.60;2.20;;;;;;;16.98;49.22;101347.48;117060;1186;23545;-67
2022/09/05 03:50:31;;;;;;;4.10;1.90;;;;;;;16.93;49.26;101348.44;116938;1183;22930;-67
2022/09/05 03:53:49;;;;;;;3.60;1.60;;;;;;;16.94;49.25;101352.68;117222;1183;22622;-59
2022/09/05 03:56:58;;;;;;;5.90;1.70;;;;;;;16.97;49.40;101354.23;116974;1187;23406;-66
2022/09/05 04:00:05;;;;;;;3.80;1.90;;;;;;;17.02;49.28;101354.48;116938;1188;21866;-59
2022/09/05 04:02:51;;;;;;;4.50;1.40;;;;;;;17.03;49.37;101355.51;119117;1186;21958;-67
2022/09/05 04:05:41;;;;;;;5.10;1.80;;;;;;;17.00;49.41;101356.49;117038;1188;21869;-58
2022/09/05 04:08:41;;;;;;;3.70;1.60;;;;;;;17.00;49.45;101358.08;117273;1183;22945;-66
2022/09/05 04:11:15;;;;;;;9.80;2.50;;;;;;;17.05;49.54;101360.77;117126;1189;21911;-66
2022/09/05 04:13:53;;;;;;;3.20;1.90;;;;;;;17.15;49.41;101360.38;117148;1183;22935;-66
2022/09/05 04:16:21;;;;;;;4.30;1.50;;;;;;;17.11;49.56;101359.59;117040;1188;21908;-58
2022/09/05 04:19:03;;;;;;;7.80;2.80;;;;;;;17.10;49.60;101364.22;117311;1186;22969;-58
2022/09/05 04:22:04;;;;;;;4.60;2.20;;;;;;;17.10;49.59;101368.65;117210;1188;22979;-66
2022/09/05 04:24:45;;;;;;;4.40;1.80;;;;;;;17.09;49.73;101367.41;117160;1189;22967;-65
2022/09/05 04:27:27;;;;;;;4.60;1.70;;;;;;;17.17;49.52;101370.44;117165;1183;22998;-65
2022/09/05 04:30:14;;;;;;;4.30;1.50;;;;;;;17.23;49.69;101371.52;117795;1188;22931;-65
2022/09/05 04:33:17;;;;;;;6.60;2.00;;;;;;;17.26;49.57;101370.02;117246;1186;21858;-57
2022/09/05 04:35:55;;;;;;;7.70;2.00;;;;;;;17.31;49.74;101369.73;117006;1184;23015;-58
2022/09/05 04:38:36;;;;;;;7.00;1.80;;;;;;;17.32;49.72;101370.60;116958;1186;23640;-57
2022/09/05 04:41:17;;;;;;;5.60;2.50;;;;;;;17.31;49.89;101370.45;119292;1185;22336;-58
2022/09/05 04:43:56;;;;;;;5.40;2.00;;;;;;;17.38;50.01;101371.70;119253;1183;21792;-66
2022/09/05 04:46:29;;;;;;;5.20;1.50;;;;;;;17.44;49.98;101369.77;119250;1183;21806;-68
2022/09/05 04:49:04;;;;;;;4.60;2.00;;;;;;;17.47;49.99;101375.73;119334;1186;21842;-66
2022/09/05 04:52:12;;;;;;;6.50;2.30;;;;;;;17.53;50.07;101373.98;119196;1186;22248;-58
2022/09/05 04:55:08;;;;;;;6.90;2.80;;;;;;;17.61;50.17;101372.73;119165;1186;22291;-59
2022/09/05 04:57:40;;;;;;;18.60;4.90;;;;;;;17.68;50.29;101374.28;117194;1183;22100;-60
2022/09/05 05:00:11;;;;;;;10.30;4.60;;;;;;;17.76;50.37;101373.56;116986;1185;21860;-65
2022/09/05 05:03:00;;;;;;;11.00;3.00;;;;;;;17.86;50.44;101378.45;117138;1186;22932;-59
2022/09/05 05:05:47;;;;;;;8.10;3.20;;;;;;;17.96;50.30;101380.30;117032;1189;21877;-58
2022/09/05 05:08:57;;;;;;;8.20;2.20;;;;;;;18.08;50.40;101382.85;116943;1186;23670;-58
2022/09/05 05:11:37;;;;;;;8.10;2.30;;;;;;;18.21;50.21;101386.23;116924;1186;21861;-66
2022/09/05 05:14:26;;;;;;;;;;;;;;;18.33;50.16;101387.67;116984;1188;23692;-58
2022/09/05 05:17:22;;;;;;;5.40;2.00;;;;;;;18.42;50.19;101391.13;117307;1182;23553;-58
2022/09/05 05:20:25;;;;;;;11.90;2.10;;;;;;;18.53;50.15;101391.73;116845;1188;22931;-58
2022/09/05 05:23:14;;;;;;;6.60;2.20;;;;;;;18.65;50.33;101390.64;116876;1188;22995;-57
2022/09/05 05:25:54;;;;;;;8.70;2.20;;;;;;;18.77;50.16;101395.80;117033;1186;21900;-57
2022/09/05 05:28:25;;;;;;;4.40;1.90;;;;;;;18.87;50.10;101398.69;117108;1183;23455;-58
2022/09/05 05:30:54;;;;;;;8.60;2.30;;;;;;;19.00;50.03;101399.23;116895;1188;21917;-66
2022/09/05 05:33:31;;;;;;;6.70;2.00;;;;;;;19.12;49.74;101397.07;116937;1184;22983;-58
2022/09/05 05:35:59;;;;;;;;;;;;;;;19.23;49.62;101392.12;117104;1186;21841;-66
2022/09/05 05:38:36;;;;;;;7.60;2.00;;;;;;;19.33;49.78;101395.70;117067;1182;23645;-67
2022/09/05 05:41:12;;;;;;;8.00;2.20;;;;;;;19.48;49.71;101398.73;116825;1187;22809;-58
2022/09/05 05:43:41;;;;;;;7.10;1.80;;;;;;;19.58;49.35;101401.27;117071;1186;22915;-58
2022/09/05 05:46:14;;;;;;;7.60;1.60;;;;;;;19.71;49.30;101404.75;119174;1186;22063;-67
2022/09/05 05:48:41;;;;;;;4.10;1.20;;;;;;;19.84;49.03;101401.11;117603;1187;21861;-66
2022/09/05 05:51:26;;;;;;;7.60;1.90;;;;;;;19.95;48.90;101396.66;116765;1186;23468;-67
2022/09/05 05:54:22;;;;;;;4.00;1.30;;;;;;;20.11;48.81;101396.28;116929;1188;21852;-67
2022/09/05 05:57:08;;;;;;;4.20;1.40;;;;;;;20.26;48.62;101393.77;118534;1186;21864;-67
2022/09/05 05:59:44;;;;;;;4.20;1.40;;;;;;;20.44;48.31;101394.53;116999;1188;21923;-67
2022/09/05 06:03:17;;;;;;;2.50;1.30;;;;;;;20.62;48.09;101390.83;116874;1189;21873;-58
2022/09/05 06:06:24;;;;;;;4.10;1.10;;;;;;;20.85;47.82;101388.54;116645;1189;23535;-58
2022/09/05 06:09:10;;;;;;;3.40;1.10;;;;;;;21.06;47.56;101389.29;117016;1186;21854;-66
2022/09/05 06:12:05;;;;;;;2.80;1.40;;;;;;;21.29;47.12;101388.20;117032;1187;21867;-59
2022/09/05 06:15:24;;;;;;;2.20;1.00;;;;;;;21.50;46.89;101390.54;117314;1183;22319;-58
2022/09/05 06:18:15;;;;;;;2.20;1.00;;;;;;;21.72;46.54;101391.45;117036;1186;22935;-67
2022/09/05 06:20:48;;;;;;;5.30;2.00;;;;;;;21.91;45.73;101393.84;116982;1185;22917;-59
2022/09/05 06:23:41;;;;;;;2.10;1.20;;;;;;;22.07;45.56;101394.71;116870;1189;21872;-59
2022/09/05 06:26:31;;;;;;;3.40;1.20;;;;;;;22.23;45.14;101396.19;116946;1189;21894;-58
2022/09/05 06:29:04;;;;;;;3.70;1.10;;;;;;;22.41;45.07;101401.65;117035;1188;22562;-66
2022/09/05 06:31:50;;;;;;;2.20;1.30;;;;;;;22.60;44.89;101402.58;117265;1185;22916;-59
2022/09/05 06:34:20;;;;;;;2.30;1.10;;;;;;;22.80;44.62;101401.65;117184;1183;22934;-58
2022/09/05 06:37:08;;;;;;;2.20;0.70;;;;;;;22.97;44.51;101406.02;117024;1187;21859;-58
2022/09/05 06:39:45;;;;;;;4.20;1.10;;;;;;;23.13;44.02;101411.52;117006;1186;23579;-58
2022/09/05 06:42:25;;;;;;;2.50;1.20;;;;;;;23.26;43.48;101415.22;117100;1186;22947;-66
2022/09/05 06:45:27;;;;;;;3.40;0.90;;;;;;;23.38;43.27;101413.02;117176;1186;21860;-66
2022/09/05 06:48:13;;;;;;;2.00;1.00;;;;;;;23.44;42.32;101414.16;116845;1188;21856;-59
2022/09/05 06:51:36;;;;;;;3.10;1.10;;;;;;;23.50;42.94;101415.86;116868;1186;23089;-67
2022/09/05 06:54:11;;;;;;;;;;;;;;;23.71;42.93;101420.52;116844;1188;21836;-59
2022/09/05 06:57:08;;;;;;;9.40;1.20;;;;;;;23.89;42.83;101419.93;117122;1182;24217;-59
2022/09/05 07:00:13;;;;;;;4.60;1.20;;;;;;;24.13;42.84;101424.44;116934;1186;21857;-59
2022/09/05 07:03:20;;;;;;;4.00;1.10;;;;;;;24.38;42.50;101424.41;117091;1186;21934;-68
2022/09/05 07:05:54;;;;;;;4.00;0.80;;;;;;;24.57;41.98;101426.64;117005;1186;21855;-60
2022/09/05 07:08:29;;;;;;;8.10;1.40;;;;;;;24.64;40.66;101425.30;116940;1187;23022;-67
2022/09/05 07:11:07;;;;;;;;;;;;;;;24.69;40.85;101428.30;116817;1186;23550;-60
2022/09/05 07:13:54;;;;;;;2.80;0.70;;;;;;;24.78;40.45;101423.48;117328;1182;21963;-59
2022/09/05 07:16:24;;;;;;;2.40;0.90;;;;;;;24.85;40.81;101426.15;117078;1189;21900;-66
2022/09/05 07:19:25;;;;;;;3.70;0.90;;;;;;;25.02;40.85;101421.45;117065;1187;21894;-68
2022/09/05 07:22:17;;;;;;;2.20;0.70;;;;;;;25.21;40.63;101424.86;117070;1188;22327;-68
2022/09/05 07:25:08;;;;;;;5.70;1.20;;;;;;;25.43;40.45;101426.52;117003;1185;23068;-68
2022/09/05 07:27:41;;;;;;;2.50;0.90;;;;;;;25.58;39.89;101422.79;117022;1186;21890;-60
2022/09/05 07:30:28;;;;;;;3.30;1.30;;;;;;;25.71;39.87;101427.22;117324;1185;23586;-60
2022/09/05 07:32:55;;;;;;;4.40;1.20;;;;;;;25.84;36.76;101425.00;117210;1188;22925;-68
2022/09/05 07:35:28;;;;;;;2.70;0.90;;;;;;;25.80;36.42;101420.94;117214;1184;23466;-68
2022/09/05 07:38:19;;;;;;;1.80;0.90;;;;;;;25.67;37.26;101421.88;117290;1189;21854;-60
2022/09/05 07:40:55;;;;;;;3.20;1.00;;;;;;;25.68;38.48;101422.35;117194;1183;24148;-69
2022/09/05 07:43:27;;;;;;;1.90;1.00;;;;;;;25.89;38.47;101421.84;117229;1186;21854;-68
2022/09/05 07:45:54;;;;;;;2.80;1.10;;;;;;;26.06;37.84;101417.75;117356;1183;21855;-60
2022/09/05 07:48:24;;;;;;;5.70;1.30;;;;;;;26.25;38.09;101419.50;117299;1188;21860;-60
2022/09/05 07:51:03;;;;;;;3.50;0.90;;;;;;;26.54;37.88;101419.50;117376;1186;22172;-60
2022/09/05 07:53:52;;;;;;;4.20;1.10;;;;;;;26.80;37.76;101414.98;117204;1186;21858;-68
2022/09/05 07:56:45;;;;;;;3.70;1.30;;;;;;;26.95;37.32;101410.62;117053;1182;23558;-69
2022/09/05 07:59:33;;;;;;;2.20;1.00;;;;;;;27.07;36.96;101411.41;117050;1188;21858;-69
2022/09/05 08:02:00;;;;;;;1.50;0.80;;;;;;;27.24;35.07;101408.16;117241;1183;23554;-67
2022/09/05 08:04:28;;;;;;;2.00;1.10;;;;;;;27.39;34.21;101402.98;117240;1187;22889;-67
2022/09/05 08:07:04;;;;;;;2.60;1.00;;;;;;;27.33;35.30;101404.13;117359;1184;23445;-60
2022/09/05 08:09:53;;;;;;;2.90;1.00;;;;;;;27.28;35.95;101402.33;117369;1182;23187;-60
2022/09/05 08:12:38;;;;;;;3.70;1.20;;;;;;;27.52;36.24;101402.02;117192;1186;22970;-60
2022/09/05 08:15:27;;;;;;;3.70;1.10;;;;;;;27.91;35.98;101402.95;117073;1186;22931;-60
2022/09/05 08:18:20;;;;;;;5.70;1.20;;;;;;;28.33;35.48;101396.98;117262;1183;21907;-59
2022/09/05 08:20:49;;;;;;;5.40;1.30;;;;;;;28.63;35.51;101393.40;117303;1180;22648;-68
2022/09/05 08:23:50;;;;;;;5.40;1.30;;;;;;;28.90;35.05;101391.27;117251;1186;22648;-60
2022/09/05 08:26:22;;;;;;;4.70;1.20;;;;;;;29.15;34.40;101387.77;117107;1182;24166;-59
2022/09/05 08:29:20;;;;;;;1.80;0.90;;;;;;;29.30;34.04;101386.70;117190;1186;22922;-59
2022/09/05 08:31:51;;;;;;;11.00;1.70;;;;;;;29.46;33.87;101386.88;117207;1182;21846;-62
2022/09/05 08:34:30;;;;;;;5.90;1.70;;;;;;;29.67;34.08;101384.75;117285;1185;23544;-70
2022/09/05 08:37:13;;;;;;;5.90;1.20;;;;;;;30.03;34.21;101384.73;117151;1186;22161;-61
2022/09/05 08:39:49;;;;;;;18.80;2.30;;;;;;;30.44;33.87;101385.64;117121;1188;23554;-69
2022/09/05 08:43:02;;;;;;;27.20;3.10;;;;;;;30.77;33.18;101379.38;117272;1185;21847;-69
2022/09/05 08:45:57;;;;;;;27.20;3.60;;;;;;;30.75;32.24;101369.23;117032;1186;23664;-69
2022/09/05 08:49:12;;;;;;;15.50;2.30;;;;;;;30.66;32.10;101369.95;117086;1185;21870;-60
2022/09/05 08:52:30;;;;;;;13.40;1.60;;;;;;;30.82;32.57;101369.58;116842;1187;21884;-67
2022/09/05 08:55:14;;;;;;;6.30;1.50;;;;;;;31.04;32.59;101367.76;116931;1187;24168;-67
2022/09/05 08:57:45;;;;;;;6.80;1.00;;;;;;;31.19;31.51;101367.80;117279;1189;21877;-60
2022/09/05 09:00:16;;;;;;;10.70;1.60;;;;;;;31.26;31.75;101365.21;117282;1184;21852;-68
2022/09/05 09:03:22;;;;;;;7.50;1.40;;;;;;;31.30;31.06;101365.76;117044;1186;23370;-60
2022/09/05 09:05:56;;;;;;;1.50;1.00;;;;;;;31.35;30.48;101358.48;117086;1184;22922;-68
2022/09/05 09:09:03;;;;;;;7.10;2.10;;;;;;;31.14;30.51;101360.34;117238;1182;21855;-69
2022/09/05 09:11:50;;;;;;;5.70;1.60;;;;;;;31.03;30.67;101360.77;117266;1185;22931;-60
2022/09/05 09:15:08;;;;;;;7.70;1.10;;;;;;;30.85;30.69;101361.64;117201;1188;21844;-68
2022/09/05 09:17:54;;;;;;;2.50;0.90;;;;;;;30.85;31.11;101362.80;117294;1176;21919;-60
2022/09/05 09:20:46;;;;;;;1.90;1.00;;;;;;;30.95;30.80;101357.63;117232;1184;23643;-61
2022/09/05 09:23:25;;;;;;;4.90;1.50;;;;;;;31.19;30.72;101356.01;117164;1188;21856;-60
2022/09/05 09:26:16;;;;;;;2.00;1.00;;;;;;;31.44;30.45;101355.34;117112;1187;21888;-69
2022/09/05 09:28:55;;;;;;;3.40;1.00;;;;;;;31.76;30.05;101355.71;117182;1186;23596;-68
2022/09/05 09:31:48;;;;;;;3.60;1.30;;;;;;;31.83;28.82;101352.70;117252;1186;21870;-68
2022/09/05 09:34:25;;;;;;;5.10;1.40;;;;;;;31.59;29.37;101351.50;117004;1185;22861;-60
2022/09/05 09:37:01;;;;;;;3.10;1.20;;;;;;;31.45;29.22;101347.30;117033;1186;21891;-67
2022/09/05 09:39:43;;;;;;;2.60;1.30;;;;;;;31.29;29.76;101347.16;117096;1187;21858;-68
2022/09/05 09:42:46;;;;;;;4.20;1.20;;;;;;;31.31;30.05;101345.01;117036;1180;23407;-68
2022/09/05 09:45:20;;;;;;;2.50;1.30;;;;;;;31.35;29.93;101349.04;117239;1185;22938;-68
2022/09/05 09:48:15;;;;;;;2.70;1.20;;;;;;;31.45;29.84;101345.84;117050;1186;21859;-68
2022/09/05 09:50:42;;;;;;;6.60;1.50;;;;;;;31.59;29.86;101349.66;117012;1187;23569;-68
2022/09/05 09:53:49;;;;;;;4.40;1.20;;;;;;;31.67;29.56;101350.23;117004;1186;21869;-69
2022/09/05 09:56:44;;;;;;;2.80;0.90;;;;;;;31.63;29.20;101348.63;116989;1183;23557;-68
2022/09/05 09:59:30;;;;;;;1.60;1.00;;;;;;;31.37;28.90;101346.11;117260;1185;22932;-60
2022/09/05 10:02:19;;;;;;;2.80;1.10;;;;;;;30.97;28.67;101344.95;117080;1182;23579;-70
2022/09/05 10:05:11;;;;;;;1.70;0.80;;;;;;;30.36;28.20;101346.67;116966;1186;21852;-60
2022/09/05 10:08:20;;;;;;;3.20;1.20;;;;;;;30.09;29.03;101348.77;117175;1186;21857;-70
2022/09/05 10:11:58;;;;;;;2.80;1.10;;;;;;;30.13;29.18;101346.14;117238;1185;21859;-69
2022/09/05 10:14:54;;;;;;;3.90;1.10;;;;;;;30.08;29.18;101345.10;116740;1191;21906;-60
2022/09/05 10:17:39;;;;;;;2.90;0.90;;;;;;;30.04;29.43;101344.11;116660;1191;21862;-69
2022/09/05 10:20:13;;;;;;;2.00;1.10;;;;;;;30.03;29.05;101344.20;117162;1185;22944;-69
2022/09/05 10:22:51;;;;;;;4.10;1.10;;;;;;;29.87;28.84;101339.46;117163;1185;22956;-61
2022/09/05 10:25:27;;;;;;;1.90;1.30;;;;;;;29.65;28.83;101339.54;117106;1183;22929;-61
2022/09/05 10:28:04;;;;;;;1.70;0.90;;;;;;;29.46;28.66;101342.09;116994;1186;21904;-69
2022/09/05 10:30:59;;;;;;;4.40;1.20;;;;;;;29.25;28.94;101341.10;117149;1184;24162;-69
2022/09/05 10:33:55;;;;;;;2.10;1.30;;;;;;;29.04;29.23;101343.65;117240;1183;21855;-61
2022/09/05 10:36:53;;;;;;;3.90;1.10;;;;;;;28.87;29.08;101339.88;117022;1186;21859;-68
2022/09/05 10:39:24;;;;;;;3.20;1.00;;;;;;;28.74;29.17;101340.38;117085;1184;21863;-61
2022/09/05 10:42:00;;;;;;;3.40;1.20;;;;;;;28.67;28.97;101336.05;117104;1188;21877;-69
2022/09/05 10:44:43;;;;;;;3.30;0.90;;;;;;;28.55;28.96;101332.38;117021;1186;21848;-60
2022/09/05 10:47:16;;;;;;;4.40;0.90;;;;;;;28.41;29.10;101337.17;117200;1182;23704;-60
2022/09/05 10:49:46;;;;;;;3.40;1.30;;;;;;;28.27;29.15;101337.31;117327;1185;22896;-60
2022/09/05 10:52:19;;;;;;;3.30;1.20;;;;;;;28.15;29.06;101339.28;117326;1186;22981;-61
2022/09/05 10:55:01;;;;;;;3.10;1.10;;;;;;;28.00;29.06;101333.45;117364;1182;23545;-70
2022/09/05 10:58:03;;;;;;;3.60;1.10;;;;;;;27.80;28.85;101337.70;117095;1186;21902;-60
2022/09/05 11:01:01;;;;;;;3.40;1.20;;;;;;;27.52;28.85;101340.34;117140;1187;23268;-68
2022/09/05 11:03:55;;;;;;;2.20;1.00;;;;;;;27.27;29.41;101339.17;117191;1186;21858;-68
2022/09/05 11:06:45;;;;;;;4.50;1.40;;;;;;;27.25;29.71;101334.06;117270;1181;22929;-68
2022/09/05 11:09:26;;;;;;;9.70;2.50;;;;;;;27.32;29.67;101331.23;116992;1186;22945;-60
2022/09/05 11:12:21;;;;;;;5.60;1.40;;;;;;;27.37;29.61;101330.20;117045;1186;23018;-68
2022/09/05 11:14:52;;;;;;;3.60;1.20;;;;;;;27.38;29.78;101325.82;117092;1185;22931;-68
2022/09/05 11:17:40;;;;;;;3.20;0.90;;;;;;;27.42;29.68;101326.95;117154;1183;24294;-60
2022/09/05 11:20:30;;;;;;;3.00;1.10;;;;;;;27.53;29.27;101323.01;117122;1186;21845;-59
2022/09/05 11:23:14;;;;;;;2.80;1.00;;;;;;;27.68;29.37;101319.08;117082;1186;21955;-68
2022/09/05 11:25:41;;;;;;;2.70;1.10;;;;;;;27.96;29.23;101313.13;117312;1183;22907;-68
2022/09/05 11:28:14;;;;;;;1.90;1.10;;;;;;;28.27;28.89;101302.30;117186;1185;23572;-69
2022/09/05 11:30:44;;;;;;;5.30;1.20;;;;;;;28.51;28.29;101297.16;117063;1182;22663;-69
2022/09/05 11:34:07;;;;;;;1.70;0.90;;;;;;;28.64;28.16;101290.92;117289;1182;23579;-69
2022/09/05 11:36:55;;;;;;;5.40;1.30;;;;;;;28.93;27.93;101282.46;117033;1188;21861;-69
2022/09/05 11:40:08;;;;;;;3.80;1.20;;;;;;;29.19;27.61;101278.02;117098;1186;22925;-69
2022/09/05 11:43:23;;;;;;;2.60;1.20;;;;;;;29.49;27.93;101274.64;117023;1187;23383;-60
2022/09/05 11:45:57;;;;;;;3.60;1.00;;;;;;;29.83;27.56;101271.08;117171;1186;22178;-69
2022/09/05 11:48:46;;;;;;;2.60;1.30;;;;;;;30.05;27.08;101267.52;117123;1188;21884;-69
2022/09/05 11:51:47;;;;;;;4.40;1.30;;;;;;;29.99;26.46;101262.92;117083;1187;22342;-60
2022/09/05 11:54:54;;;;;;;4.90;1.10;;;;;;;29.86;26.54;101261.21;117126;1183;22115;-68
2022/09/05 11:57:30;;;;;;;3.60;1.30;;;;;;;29.83;26.45;101257.12;117113;1185;22822;-68
2022/09/05 12:00:09;;;;;;;2.80;1.20;;;;;;;29.73;26.42;101251.57;117193;1186;22636;-70
2022/09/05 12:03:40;;;;;;;3.10;1.00;;;;;;;29.61;26.34;101249.84;117134;1182;22657;-60
2022/09/05 12:07:05;;;;;;;2.60;1.10;;;;;;;29.38;26.46;101252.14;117096;1189;21865;-62
2022/09/05 12:10:11;;;;;;;1.80;1.10;;;;;;;29.38;27.05;101252.52;117188;1182;22620;-70
2022/09/05 12:13:16;;;;;;;2.10;0.90;;;;;;;29.59;26.77;101250.30;117226;1185;21970;-60
2022/09/05 12:15:47;;;;;;;5.00;1.70;;;;;;;29.66;26.40;101250.09;117114;1188;21902;-60
2022/09/05 12:18:43;;;;;;;6.20;2.10;;;;;;;29.71;25.63;101242.87;117194;1186;21909;-70
2022/09/05 12:21:25;;;;;;;3.10;1.00;;;;;;;29.74;25.93;101239.42;117106;1188;21858;-60
2022/09/05 12:24:13;;;;;;;5.40;1.60;;;;;;;29.76;25.93;101234.54;117032;1188;22966;-68
2022/09/05 12:27:07;;;;;;;2.10;1.00;;;;;;;29.57;24.79;101238.02;117125;1186;21867;-69
2022/09/05 12:29:58;;;;;;;2.60;1.10;;;;;;;29.41;25.93;101234.95;117093;1183;21859;-61
2022/09/05 12:32:26;;;;;;;2.10;1.10;;;;;;;29.36;25.56;101230.04;117196;1186;21920;-69
2022/09/05 12:35:52;;;;;;;3.90;1.50;;;;;;;29.29;26.06;101225.91;117115;1184;23672;-61
2022/09/05 12:38:50;;;;;;;7.90;5.50;;;;;;;29.39;26.06;101220.05;116997;1184;22444;-61
2022/09/05 12:41:45;;;;;;;14.50;4.30;;;;;;;29.60;26.51;101216.08;117215;1184;22946;-69
2022/09/05 12:45:08;;;;;;;2.90;1.20;;;;;;;29.95;26.66;101211.47;117082;1183;21969;-69
2022/09/05 12:48:12;;;;;;;2.70;1.20;;;;;;;30.21;26.12;101208.15;117175;1182;23652;-60
2022/09/05 12:51:04;;;;;;;5.70;1.30;;;;;;;30.27;26.04;101209.93;117044;1185;22662;-69